Kuujjuarapik Airport
CYGW : now visible

Airfield :











YOU CAN JOIN US ON...

 
LOGIN :

Register | Disclaimer

   EN    FR    IT 

 









Legend :    VFR   Marginal VFR   IFR   Intensive IFR   Very Intensive IFR
Visi :
Ceiling :
>= 8 km
>= 3000ft
5 to 8 km
1000 to 3000 ft
1500m to 5 km
500 to 1000 ft
800 to 1500m
200 to 500 ft
< 800m
< 200 ft
Symbols :   Thunderstorms  Fog  Heavy snow  Heavy precipitations  Wind > 20 kt






- Airport Elevation : 34 ft
- IATA code : YGW


CYGW - Kuujjuarapik

CURRENT METAR :
  • 080832Z AUTO 15017G28KT 4SM -SN SCT016 SCT033 OVC095 M09/M11 A2947 RMK SLP981

EXPIRED METARs :
  • 080819Z AUTO 16021G31KT 2 1/4SM -SN BKN016 OVC095 M09/M12 A2947 RMK VIS VRB 1 3/4-3 PRESFR SLP982
  • 080800Z AUTO 15020G30KT 3SM -SN BKN013 OVC020 M09/M12 A2950 RMK PRESFR SLP991
  • 080710Z AUTO 16016G27KT 5SM -SN OVC013 M09/M12 A2956 RMK PRESFR SLP014
  • 080700Z AUTO 15016G27KT 8SM -SN OVC013 M10/M12 A2958 RMK SLP018
  • 080651Z AUTO 16016G29KT 6SM -SN OVC015 M10/M13 A2959 RMK SLP022
  • 080647Z AUTO 15020G28KT 5SM -SN OVC017 M10/M13 A2959 RMK PRESFR SLP021
  • 080623Z AUTO 16013G24KT 6SM -SN OVC017 M10/M13 A2961 RMK SLP029
  • 080617Z AUTO 16015G29KT 3SM -SN OVC017 M10/M13 A2962 RMK SLP032
  • 080600Z AUTO 16018G38KT 1SM -SN OVC017 M10/M13 A2961 RMK PRESFR SLP030

TAF TAF CYGW
Valid from the 08 at 06:00 until the 08 at 18:00 UTC


080538Z 0806/0818 16018G35KT 3/4SM -SN BLSN OVC015
TEMPO 0806/0812 6SM -SN
FM081200 16018G30KT 11/2SM -SN OVC015
TEMPO 0812/0816 21/2SM -SN
PROB30 0812/0816 3/4SM -SN BLSN
FM081600 27018G30KT P6SM -SN BKN030
TEMPO 0816/0818 2SM -SN OVC020 RMK FCST BASED ON AUTO OBS. NXT FCST BY 081200Z



MET'MAP, your aeronautical weather chart ! - Copyright ORBIFLY December 2007 - Disclaimer

ORBIFLY MET'MAP TEAM :

Programming & Development : Alexandra Zaïnal
Concept & original design : Baudouin d'Aumeries
Assistance for programming : Marc-Olivier Méhu
Technical & hardware support : Manuel Goepfert

Contact : metmap@orbifly.com




SOURCES & CREDITS :

   NOAA       Earth
Advisory